sensor_id;sensor_type;location;lat;lon;timestamp;pressure;altitude;pressure_sealevel;temperature;humidity
42601;BME280;28229;48.856;9.088;2023-02-10T00:01:22;99788.06;;;-3.10;82.51
42601;BME280;28229;48.856;9.088;2023-02-10T00:03:49;99789.81;;;-3.11;82.46
42601;BME280;28229;48.856;9.088;2023-02-10T00:06:16;99788.34;;;-3.15;82.56
42601;BME280;28229;48.856;9.088;2023-02-10T00:08:46;99789.97;;;-3.14;82.76
42601;BME280;28229;48.856;9.088;2023-02-10T00:11:13;99789.44;;;-3.19;83.01
42601;BME280;28229;48.856;9.088;2023-02-10T00:13:41;99787.34;;;-3.28;83.24
42601;BME280;28229;48.856;9.088;2023-02-10T00:16:11;99790.47;;;-3.39;83.79
42601;BME280;28229;48.856;9.088;2023-02-10T00:18:38;99787.69;;;-3.34;83.65
42601;BME280;28229;48.856;9.088;2023-02-10T00:21:10;99789.75;;;-3.41;83.87
42601;BME280;28229;48.856;9.088;2023-02-10T00:23:37;99789.00;;;-3.43;83.87
42601;BME280;28229;48.856;9.088;2023-02-10T00:26:04;99798.78;;;-3.50;84.38
42601;BME280;28229;48.856;9.088;2023-02-10T00:28:32;99802.69;;;-3.42;84.30
42601;BME280;28229;48.856;9.088;2023-02-10T00:30:58;99786.84;;;-3.51;84.38
42601;BME280;28229;48.856;9.088;2023-02-10T00:33:25;99786.66;;;-3.48;84.13
42601;BME280;28229;48.856;9.088;2023-02-10T00:35:51;99792.31;;;-3.57;84.39
42601;BME280;28229;48.856;9.088;2023-02-10T00:38:17;99793.53;;;-3.64;84.77
42601;BME280;28229;48.856;9.088;2023-02-10T00:40:46;99795.63;;;-3.55;84.54
42601;BME280;28229;48.856;9.088;2023-02-10T00:43:12;99801.53;;;-3.53;84.59
42601;BME280;28229;48.856;9.088;2023-02-10T00:45:38;99810.38;;;-3.58;84.73
42601;BME280;28229;48.856;9.088;2023-02-10T00:48:04;99814.56;;;-3.56;84.87
42601;BME280;28229;48.856;9.088;2023-02-10T00:50:31;99807.81;;;-3.58;84.74
42601;BME280;28229;48.856;9.088;2023-02-10T00:52:57;99807.59;;;-3.54;84.43
42601;BME280;28229;48.856;9.088;2023-02-10T00:55:23;99804.56;;;-3.62;84.87
42601;BME280;28229;48.856;9.088;2023-02-10T00:57:49;99808.66;;;-3.58;84.90
42601;BME280;28229;48.856;9.088;2023-02-10T01:00:17;99807.25;;;-3.64;85.06
42601;BME280;28229;48.856;9.088;2023-02-10T01:02:43;99810.66;;;-3.63;84.94
42601;BME280;28229;48.856;9.088;2023-02-10T01:05:09;99802.97;;;-3.80;85.49
42601;BME280;28229;48.856;9.088;2023-02-10T01:07:35;99798.94;;;-3.69;85.25
42601;BME280;28229;48.856;9.088;2023-02-10T01:10:02;99797.94;;;-3.66;84.91
42601;BME280;28229;48.856;9.088;2023-02-10T01:12:28;99814.72;;;-3.59;84.69
42601;BME280;28229;48.856;9.088;2023-02-10T01:14:55;99811.53;;;-3.64;84.56
42601;BME280;28229;48.856;9.088;2023-02-10T01:17:21;99816.03;;;-3.68;84.89
42601;BME280;28229;48.856;9.088;2023-02-10T01:19:47;99812.38;;;-3.79;85.29
42601;BME280;28229;48.856;9.088;2023-02-10T01:22:17;99821.13;;;-3.84;85.74
42601;BME280;28229;48.856;9.088;2023-02-10T01:24:43;99823.63;;;-3.82;85.72
42601;BME280;28229;48.856;9.088;2023-02-10T01:27:09;99823.88;;;-3.87;85.80
42601;BME280;28229;48.856;9.088;2023-02-10T01:29:36;99822.34;;;-3.91;85.73
42601;BME280;28229;48.856;9.088;2023-02-10T01:32:02;99821.13;;;-3.84;85.54
42601;BME280;28229;48.856;9.088;2023-02-10T01:34:28;99826.44;;;-3.87;85.70
42601;BME280;28229;48.856;9.088;2023-02-10T01:36:54;99826.75;;;-3.93;85.96
42601;BME280;28229;48.856;9.088;2023-02-10T01:39:21;99823.09;;;-3.89;85.99
42601;BME280;28229;48.856;9.088;2023-02-10T01:41:47;99814.63;;;-3.91;85.50
42601;BME280;28229;48.856;9.088;2023-02-10T01:46:46;99831.06;;;-3.93;85.23
42601;BME280;28229;48.856;9.088;2023-02-10T01:49:16;99822.75;;;-3.98;85.13
42601;BME280;28229;48.856;9.088;2023-02-10T01:51:54;99837.03;;;-3.93;85.07
42601;BME280;28229;48.856;9.088;2023-02-10T01:54:29;99828.13;;;-4.03;85.34
42601;BME280;28229;48.856;9.088;2023-02-10T01:56:56;99836.91;;;-4.07;85.36
42601;BME280;28229;48.856;9.088;2023-02-10T01:59:25;99837.78;;;-4.08;84.48
42601;BME280;28229;48.856;9.088;2023-02-10T02:01:52;99829.59;;;-4.15;85.17
42601;BME280;28229;48.856;9.088;2023-02-10T02:04:19;99833.50;;;-4.08;85.43
42601;BME280;28229;48.856;9.088;2023-02-10T02:06:46;99836.16;;;-4.09;85.34
42601;BME280;28229;48.856;9.088;2023-02-10T02:09:12;99833.13;;;-4.17;85.80
42601;BME280;28229;48.856;9.088;2023-02-10T02:12:03;99838.34;;;-4.19;85.62
42601;BME280;28229;48.856;9.088;2023-02-10T02:14:41;99837.75;;;-4.24;85.24
42601;BME280;28229;48.856;9.088;2023-02-10T02:17:33;99850.50;;;-4.23;85.19
42601;BME280;28229;48.856;9.088;2023-02-10T02:26:33;99862.47;;;-4.22;86.59
42601;BME280;28229;48.856;9.088;2023-02-10T02:29:31;99849.22;;;-4.14;86.50
42601;BME280;28229;48.856;9.088;2023-02-10T02:34:37;99864.13;;;-4.21;86.45
42601;BME280;28229;48.856;9.088;2023-02-10T02:37:10;99855.38;;;-4.16;86.08
42601;BME280;28229;48.856;9.088;2023-02-10T02:39:40;99864.91;;;-4.18;85.93
42601;BME280;28229;48.856;9.088;2023-02-10T02:44:36;99855.66;;;-4.23;85.52
42601;BME280;28229;48.856;9.088;2023-02-10T02:58:35;99864.44;;;-4.27;86.84
42601;BME280;28229;48.856;9.088;2023-02-10T03:01:12;99860.50;;;-4.16;87.17
42601;BME280;28229;48.856;9.088;2023-02-10T03:03:40;99857.19;;;-4.18;87.26
42601;BME280;28229;48.856;9.088;2023-02-10T03:06:07;99856.88;;;-4.12;87.37
42601;BME280;28229;48.856;9.088;2023-02-10T03:08:36;99859.44;;;-4.12;87.47
42601;BME280;28229;48.856;9.088;2023-02-10T03:11:10;99868.66;;;-4.08;87.13
42601;BME280;28229;48.856;9.088;2023-02-10T03:13:37;99864.50;;;-4.11;87.11
42601;BME280;28229;48.856;9.088;2023-02-10T03:16:04;99860.19;;;-4.10;87.08
42601;BME280;28229;48.856;9.088;2023-02-10T03:18:30;99858.53;;;-4.11;87.06
42601;BME280;28229;48.856;9.088;2023-02-10T03:20:56;99864.13;;;-4.21;87.50
42601;BME280;28229;48.856;9.088;2023-02-10T03:23:22;99862.31;;;-4.18;87.19
42601;BME280;28229;48.856;9.088;2023-02-10T03:25:48;99862.47;;;-4.22;86.94
42601;BME280;28229;48.856;9.088;2023-02-10T03:28:15;99867.75;;;-4.25;86.91
42601;BME280;28229;48.856;9.088;2023-02-10T03:30:49;99867.59;;;-4.22;86.20
42601;BME280;28229;48.856;9.088;2023-02-10T03:33:16;99871.44;;;-4.30;86.41
42601;BME280;28229;48.856;9.088;2023-02-10T03:35:43;99869.72;;;-4.30;86.03
42601;BME280;28229;48.856;9.088;2023-02-10T03:38:10;99867.44;;;-4.36;85.90
42601;BME280;28229;48.856;9.088;2023-02-10T03:40:36;99879.31;;;-4.33;85.73
42601;BME280;28229;48.856;9.088;2023-02-10T03:43:03;99875.44;;;-4.42;85.94
42601;BME280;28229;48.856;9.088;2023-02-10T03:45:29;99882.56;;;-4.47;86.13
42601;BME280;28229;48.856;9.088;2023-02-10T03:47:56;99879.38;;;-4.52;86.09
42601;BME280;28229;48.856;9.088;2023-02-10T03:50:22;99881.19;;;-4.54;86.34
42601;BME280;28229;48.856;9.088;2023-02-10T03:52:48;99882.91;;;-4.55;86.39
42601;BME280;28229;48.856;9.088;2023-02-10T03:55:14;99879.50;;;-4.55;86.09
42601;BME280;28229;48.856;9.088;2023-02-10T03:57:45;99882.97;;;-4.56;86.33
42601;BME280;28229;48.856;9.088;2023-02-10T04:00:12;99885.34;;;-4.52;86.04
42601;BME280;28229;48.856;9.088;2023-02-10T04:02:42;99886.47;;;-4.57;86.56
42601;BME280;28229;48.856;9.088;2023-02-10T04:05:08;99888.41;;;-4.63;86.72
42601;BME280;28229;48.856;9.088;2023-02-10T04:07:35;99892.81;;;-4.65;86.55
42601;BME280;28229;48.856;9.088;2023-02-10T04:10:01;99885.09;;;-4.65;86.63
42601;BME280;28229;48.856;9.088;2023-02-10T04:12:27;99887.28;;;-4.57;86.48
42601;BME280;28229;48.856;9.088;2023-02-10T04:14:53;99888.56;;;-4.66;86.97
42601;BME280;28229;48.856;9.088;2023-02-10T04:17:19;99888.09;;;-4.74;87.23
42601;BME280;28229;48.856;9.088;2023-02-10T04:19:46;99885.66;;;-4.77;87.63
42601;BME280;28229;48.856;9.088;2023-02-10T04:22:12;99882.97;;;-4.74;87.34
42601;BME280;28229;48.856;9.088;2023-02-10T04:24:38;99890.66;;;-4.74;87.18
42601;BME280;28229;48.856;9.088;2023-02-10T04:27:04;99883.31;;;-4.82;87.64
42601;BME280;28229;48.856;9.088;2023-02-10T04:29:31;99891.56;;;-4.75;87.10
42601;BME280;28229;48.856;9.088;2023-02-10T04:31:57;99891.84;;;-4.81;87.12
42601;BME280;28229;48.856;9.088;2023-02-10T04:34:23;99894.56;;;-4.84;87.09
42601;BME280;28229;48.856;9.088;2023-02-10T04:36:49;99899.84;;;-4.87;87.29
42601;BME280;28229;48.856;9.088;2023-02-10T04:39:16;99894.69;;;-4.87;86.99
42601;BME280;28229;48.856;9.088;2023-02-10T04:41:42;99894.06;;;-4.92;87.20
42601;BME280;28229;48.856;9.088;2023-02-10T04:44:08;99892.56;;;-4.97;88.11
42601;BME280;28229;48.856;9.088;2023-02-10T04:46:34;99900.13;;;-4.93;88.01
42601;BME280;28229;48.856;9.088;2023-02-10T04:49:01;99902.06;;;-4.99;88.06
42601;BME280;28229;48.856;9.088;2023-02-10T04:51:27;99911.41;;;-4.98;87.86
42601;BME280;28229;48.856;9.088;2023-02-10T04:53:53;99897.75;;;-4.98;87.82
42601;BME280;28229;48.856;9.088;2023-02-10T04:56:19;99908.16;;;-5.01;87.66
42601;BME280;28229;48.856;9.088;2023-02-10T04:58:45;99909.28;;;-5.07;87.69
42601;BME280;28229;48.856;9.088;2023-02-10T05:01:11;99910.94;;;-5.06;88.14
42601;BME280;28229;48.856;9.088;2023-02-10T05:03:38;99914.22;;;-5.02;87.53
42601;BME280;28229;48.856;9.088;2023-02-10T05:06:14;99909.00;;;-5.01;88.62
42601;BME280;28229;48.856;9.088;2023-02-10T05:08:41;99909.28;;;-5.07;88.58
42601;BME280;28229;48.856;9.088;2023-02-10T05:11:12;99912.75;;;-5.08;88.90
42601;BME280;28229;48.856;9.088;2023-02-10T05:13:39;99911.22;;;-5.12;89.25
42601;BME280;28229;48.856;9.088;2023-02-10T05:16:07;99917.47;;;-4.99;89.63
42601;BME280;28229;48.856;9.088;2023-02-10T05:18:34;99917.72;;;-5.05;89.72
42601;BME280;28229;48.856;9.088;2023-02-10T05:21:00;99921.22;;;-5.06;89.23
42601;BME280;28229;48.856;9.088;2023-02-10T05:23:28;99917.88;;;-5.08;89.03
42601;BME280;28229;48.856;9.088;2023-02-10T05:25:55;99923.22;;;-5.12;88.75
42601;BME280;28229;48.856;9.088;2023-02-10T05:28:21;99923.41;;;-5.17;88.72
42601;BME280;28229;48.856;9.088;2023-02-10T05:30:47;99920.72;;;-5.14;88.35
42601;BME280;28229;48.856;9.088;2023-02-10T05:33:14;99915.81;;;-5.19;88.36
42601;BME280;28229;48.856;9.088;2023-02-10T05:35:41;99916.75;;;-5.21;88.30
42601;BME280;28229;48.856;9.088;2023-02-10T05:38:11;99930.50;;;-5.22;88.35
42601;BME280;28229;48.856;9.088;2023-02-10T05:40:37;99936.25;;;-5.17;88.38
42601;BME280;28229;48.856;9.088;2023-02-10T07:05:07;100021.00;;;-5.39;96.40
42601;BME280;28229;48.856;9.088;2023-02-10T07:07:34;100028.78;;;-4.62;100.00
42601;BME280;28229;48.856;9.088;2023-02-10T07:10:01;100016.75;;;-3.52;100.00
42601;BME280;28229;48.856;9.088;2023-02-10T07:12:30;100017.81;;;-3.38;100.00
42601;BME280;28229;48.856;9.088;2023-02-10T07:14:59;100016.59;;;-3.66;100.00
42601;BME280;28229;48.856;9.088;2023-02-10T07:17:25;100021.72;;;-4.01;100.00
42601;BME280;28229;48.856;9.088;2023-02-10T07:19:51;100014.03;;;-4.39;100.00
42601;BME280;28229;48.856;9.088;2023-02-10T07:22:17;100017.94;;;-4.49;100.00
42601;BME280;28229;48.856;9.088;2023-02-10T08:14:28;100030.13;;;-3.28;90.27
42601;BME280;28229;48.856;9.088;2023-02-10T08:16:54;100029.19;;;-3.09;90.07
42601;BME280;28229;48.856;9.088;2023-02-10T08:19:20;100026.75;;;-2.95;89.42
42601;BME280;28229;48.856;9.088;2023-02-10T08:21:47;100040.06;;;-2.87;88.56
42601;BME280;28229;48.856;9.088;2023-02-10T08:24:13;100037.75;;;-2.75;88.05
42601;BME280;28229;48.856;9.088;2023-02-10T08:26:40;100036.78;;;-2.73;87.15
42601;BME280;28229;48.856;9.088;2023-02-10T08:29:07;100046.69;;;-2.49;88.08
42601;BME280;28229;48.856;9.088;2023-02-10T08:31:33;100038.63;;;-2.27;88.21
42601;BME280;28229;48.856;9.088;2023-02-10T08:34:00;100043.44;;;-2.05;87.32
42601;BME280;28229;48.856;9.088;2023-02-10T08:36:26;100045.06;;;-1.88;85.42
42601;BME280;28229;48.856;9.088;2023-02-10T08:38:52;100041.84;;;-1.92;82.47
42601;BME280;28229;48.856;9.088;2023-02-10T08:41:18;100042.81;;;-1.78;82.00
42601;BME280;28229;48.856;9.088;2023-02-10T08:43:45;100035.31;;;-1.67;81.48
42601;BME280;28229;48.856;9.088;2023-02-10T08:46:11;100040.84;;;-1.59;79.44
42601;BME280;28229;48.856;9.088;2023-02-10T08:48:38;100029.19;;;-1.66;79.02
42601;BME280;28229;48.856;9.088;2023-02-10T08:51:09;100044.75;;;-1.51;79.23
42601;BME280;28229;48.856;9.088;2023-02-10T08:53:36;100039.53;;;-1.66;78.47
42601;BME280;28229;48.856;9.088;2023-02-10T08:56:10;100042.22;;;-1.67;79.59
42601;BME280;28229;48.856;9.088;2023-02-10T08:58:36;100038.66;;;-1.50;79.47
42601;BME280;28229;48.856;9.088;2023-02-10T09:01:15;100034.00;;;-1.29;79.30
42601;BME280;28229;48.856;9.088;2023-02-10T09:03:42;100042.59;;;-1.15;79.10
42601;BME280;28229;48.856;9.088;2023-02-10T09:06:20;100041.41;;;-1.09;79.43
42601;BME280;28229;48.856;9.088;2023-02-10T09:08:48;100038.84;;;-0.80;79.07
42601;BME280;28229;48.856;9.088;2023-02-10T09:11:16;100046.69;;;-0.53;78.15
42601;BME280;28229;48.856;9.088;2023-02-10T09:13:53;100042.75;;;-0.31;76.90
42601;BME280;28229;48.856;9.088;2023-02-10T09:16:19;100049.16;;;-0.10;76.87
42601;BME280;28229;48.856;9.088;2023-02-10T09:18:45;100041.56;;;0.02;75.58
42601;BME280;28229;48.856;9.088;2023-02-10T09:21:12;100053.56;;;0.30;75.42
42601;BME280;28229;48.856;9.088;2023-02-10T09:23:38;100051.16;;;0.54;73.65
42601;BME280;28229;48.856;9.088;2023-02-10T09:26:04;100041.41;;;0.70;72.13
42601;BME280;28229;48.856;9.088;2023-02-10T09:28:30;100051.78;;;0.70;70.50
42601;BME280;28229;48.856;9.088;2023-02-10T09:30:56;100058.22;;;1.03;76.15
42601;BME280;28229;48.856;9.088;2023-02-10T09:33:23;100049.00;;;1.25;72.30
42601;BME280;28229;48.856;9.088;2023-02-10T09:35:49;100041.50;;;1.33;70.67
42601;BME280;28229;48.856;9.088;2023-02-10T09:38:15;100041.47;;;1.59;67.88
42601;BME280;28229;48.856;9.088;2023-02-10T09:52:17;100035.03;;;2.83;64.11
42601;BME280;28229;48.856;9.088;2023-02-10T09:54:47;100040.47;;;2.80;61.32
42601;BME280;28229;48.856;9.088;2023-02-10T09:57:17;100037.88;;;2.92;60.78
42601;BME280;28229;48.856;9.088;2023-02-10T09:59:47;100033.16;;;3.08;60.29
42601;BME280;28229;48.856;9.088;2023-02-10T10:02:28;100030.44;;;3.10;58.15
42601;BME280;28229;48.856;9.088;2023-02-10T10:04:59;100032.34;;;3.19;58.36
42601;BME280;28229;48.856;9.088;2023-02-10T10:07:33;100040.13;;;3.19;58.39
42601;BME280;28229;48.856;9.088;2023-02-10T10:10:14;100033.53;;;3.37;58.80
42601;BME280;28229;48.856;9.088;2023-02-10T10:12:43;100042.16;;;3.60;59.17
42601;BME280;28229;48.856;9.088;2023-02-10T10:15:16;100047.59;;;4.01;58.25
42601;BME280;28229;48.856;9.088;2023-02-10T10:20:31;100046.00;;;4.53;56.30
42601;BME280;28229;48.856;9.088;2023-02-10T10:26:10;100050.34;;;5.16;57.35
42601;BME280;28229;48.856;9.088;2023-02-10T10:31:23;100044.22;;;5.77;57.58
42601;BME280;28229;48.856;9.088;2023-02-10T10:33:56;100044.19;;;6.08;53.21
42601;BME280;28229;48.856;9.088;2023-02-10T10:36:41;100040.75;;;6.37;49.55
42601;BME280;28229;48.856;9.088;2023-02-10T10:39:38;100037.44;;;6.64;49.26
42601;BME280;28229;48.856;9.088;2023-02-10T10:42:46;100049.53;;;6.84;49.38
42601;BME280;28229;48.856;9.088;2023-02-10T10:45:20;100039.34;;;6.81;49.42
42601;BME280;28229;48.856;9.088;2023-02-10T10:47:53;100036.81;;;6.90;47.61
42601;BME280;28229;48.856;9.088;2023-02-10T10:50:22;100031.84;;;7.06;46.06
42601;BME280;28229;48.856;9.088;2023-02-10T10:52:52;100034.81;;;7.21;45.08
42601;BME280;28229;48.856;9.088;2023-02-10T10:55:32;100023.53;;;7.20;43.96
42601;BME280;28229;48.856;9.088;2023-02-10T10:58:03;100027.50;;;7.24;43.71
42601;BME280;28229;48.856;9.088;2023-02-10T11:00:33;100027.16;;;7.37;42.68
42601;BME280;28229;48.856;9.088;2023-02-10T11:03:02;100035.16;;;7.63;43.61
42601;BME280;28229;48.856;9.088;2023-02-10T11:05:36;100022.75;;;7.66;41.39
42601;BME280;28229;48.856;9.088;2023-02-10T11:08:07;100017.81;;;7.80;41.46
42601;BME280;28229;48.856;9.088;2023-02-10T11:10:47;100021.06;;;7.92;40.56
42601;BME280;28229;48.856;9.088;2023-02-10T11:13:22;100022.41;;;7.96;39.57
42601;BME280;28229;48.856;9.088;2023-02-10T11:15:58;100018.22;;;8.04;38.95
42601;BME280;28229;48.856;9.088;2023-02-10T11:18:25;100018.16;;;8.13;38.86
42601;BME280;28229;48.856;9.088;2023-02-10T11:20:57;100026.97;;;8.30;39.83
42601;BME280;28229;48.856;9.088;2023-02-10T11:23:24;100030.13;;;8.16;39.77
42601;BME280;28229;48.856;9.088;2023-02-10T11:26:23;100028.09;;;8.28;43.11
42601;BME280;28229;48.856;9.088;2023-02-10T11:28:50;100016.03;;;8.53;45.96
42601;BME280;28229;48.856;9.088;2023-02-10T11:31:22;100031.09;;;8.69;44.69
42601;BME280;28229;48.856;9.088;2023-02-10T11:34:00;100026.72;;;8.77;45.22
42601;BME280;28229;48.856;9.088;2023-02-10T11:36:35;100019.44;;;8.98;43.56
42601;BME280;28229;48.856;9.088;2023-02-10T11:39:05;100019.78;;;9.29;41.94
42601;BME280;28229;48.856;9.088;2023-02-10T11:41:33;100012.31;;;9.50;39.11
42601;BME280;28229;48.856;9.088;2023-02-10T11:44:00;100010.50;;;9.51;38.95
42601;BME280;28229;48.856;9.088;2023-02-10T11:46:30;100014.69;;;9.70;38.13
42601;BME280;28229;48.856;9.088;2023-02-10T11:49:03;100005.16;;;9.85;39.36
42601;BME280;28229;48.856;9.088;2023-02-10T11:51:31;100004.88;;;9.97;39.13
42601;BME280;28229;48.856;9.088;2023-02-10T11:53:58;100009.06;;;9.65;38.72
42601;BME280;28229;48.856;9.088;2023-02-10T11:56:32;100007.53;;;9.46;40.06
42601;BME280;28229;48.856;9.088;2023-02-10T11:59:38;100011.47;;;9.50;40.76
42601;BME280;28229;48.856;9.088;2023-02-10T12:08:11;99987.03;;;9.66;44.12
42601;BME280;28229;48.856;9.088;2023-02-10T12:10:52;99992.19;;;9.76;39.83
42601;BME280;28229;48.856;9.088;2023-02-10T12:16:18;99988.75;;;9.91;39.33
42601;BME280;28229;48.856;9.088;2023-02-10T12:18:59;99995.66;;;10.01;44.36
42601;BME280;28229;48.856;9.088;2023-02-10T12:30:07;99991.09;;;10.52;40.98
42601;BME280;28229;48.856;9.088;2023-02-10T12:35:54;99971.31;;;10.73;38.17
42601;BME280;28229;48.856;9.088;2023-02-10T12:38:33;99982.47;;;10.91;36.58
42601;BME280;28229;48.856;9.088;2023-02-10T12:43:59;99973.25;;;10.95;36.92
42601;BME280;28229;48.856;9.088;2023-02-10T12:46:49;99969.97;;;10.93;36.36
42601;BME280;28229;48.856;9.088;2023-02-10T12:49:21;99961.16;;;10.61;35.94
42601;BME280;28229;48.856;9.088;2023-02-10T12:57:20;99961.34;;;11.16;35.17
42601;BME280;28229;48.856;9.088;2023-02-10T13:00:12;99960.00;;;11.20;39.30
42601;BME280;28229;48.856;9.088;2023-02-10T13:02:45;99951.03;;;11.37;37.83
42601;BME280;28229;48.856;9.088;2023-02-10T13:05:17;99944.47;;;11.56;35.34
42601;BME280;28229;48.856;9.088;2023-02-10T13:07:55;99952.69;;;11.61;36.63
42601;BME280;28229;48.856;9.088;2023-02-10T13:10:39;99952.81;;;11.68;37.11
42601;BME280;28229;48.856;9.088;2023-02-10T13:13:12;99957.91;;;11.38;36.02
42601;BME280;28229;48.856;9.088;2023-02-10T13:15:43;99955.75;;;11.42;35.02
42601;BME280;28229;48.856;9.088;2023-02-10T13:18:23;99956.63;;;11.34;36.48
42601;BME280;28229;48.856;9.088;2023-02-10T13:21:10;99959.38;;;11.10;37.71
42601;BME280;28229;48.856;9.088;2023-02-10T13:23:54;99956.53;;;10.72;35.61
42601;BME280;28229;48.856;9.088;2023-02-10T13:26:52;99953.84;;;10.88;38.31
42601;BME280;28229;48.856;9.088;2023-02-10T13:32:31;99954.41;;;11.15;40.21
42601;BME280;28229;48.856;9.088;2023-02-10T13:35:06;99954.41;;;11.15;39.56
42601;BME280;28229;48.856;9.088;2023-02-10T13:37:40;99954.00;;;10.86;35.82
42601;BME280;28229;48.856;9.088;2023-02-10T13:40:28;99962.81;;;10.46;37.23
42601;BME280;28229;48.856;9.088;2023-02-10T13:43:01;99959.19;;;10.39;38.04
42601;BME280;28229;48.856;9.088;2023-02-10T13:45:33;99957.25;;;10.33;38.55
42601;BME280;28229;48.856;9.088;2023-02-10T13:48:04;99958.53;;;10.37;39.55
42601;BME280;28229;48.856;9.088;2023-02-10T13:50:47;99957.91;;;10.43;37.90
42601;BME280;28229;48.856;9.088;2023-02-10T13:53:29;99960.34;;;10.61;36.40
42601;BME280;28229;48.856;9.088;2023-02-10T13:59:35;99955.03;;;10.69;38.17
42601;BME280;28229;48.856;9.088;2023-02-10T14:01:42;99963.72;;;10.86;34.73
42601;BME280;28229;48.856;9.088;2023-02-10T14:06:53;99959.75;;;10.90;34.62
42601;BME280;28229;48.856;9.088;2023-02-10T14:11:58;99959.13;;;10.88;35.18
42601;BME280;28229;48.856;9.088;2023-02-10T14:17:16;99952.94;;;10.64;35.18
42601;BME280;28229;48.856;9.088;2023-02-10T14:19:49;99957.88;;;10.59;35.51
42601;BME280;28229;48.856;9.088;2023-02-10T14:22:33;99951.44;;;10.62;35.60
42601;BME280;28229;48.856;9.088;2023-02-10T14:27:39;99955.81;;;10.86;35.79
42601;BME280;28229;48.856;9.088;2023-02-10T14:30:21;99957.19;;;10.65;33.91
42601;BME280;28229;48.856;9.088;2023-02-10T14:32:49;99955.06;;;10.44;34.33
42601;BME280;28229;48.856;9.088;2023-02-10T14:35:21;99953.44;;;10.27;34.25
42601;BME280;28229;48.856;9.088;2023-02-10T14:37:49;99950.31;;;10.32;34.59
42601;BME280;28229;48.856;9.088;2023-02-10T14:40:18;99946.41;;;10.36;34.93
42601;BME280;28229;48.856;9.088;2023-02-10T14:42:45;99949.50;;;10.31;34.62
42601;BME280;28229;48.856;9.088;2023-02-10T14:45:19;99940.78;;;10.31;34.44
42601;BME280;28229;48.856;9.088;2023-02-10T14:47:47;99948.66;;;10.31;34.08
42601;BME280;28229;48.856;9.088;2023-02-10T14:50:44;99948.19;;;10.27;34.70
42601;BME280;28229;48.856;9.088;2023-02-10T14:53:17;99950.78;;;10.19;35.15
42601;BME280;28229;48.856;9.088;2023-02-10T14:55:44;99951.28;;;10.14;34.65
42601;BME280;28229;48.856;9.088;2023-02-10T14:58:13;99942.91;;;10.10;34.99
42601;BME280;28229;48.856;9.088;2023-02-10T15:00:42;99949.81;;;9.95;35.26
42601;BME280;28229;48.856;9.088;2023-02-10T15:03:18;99946.34;;;9.70;35.35
42601;BME280;28229;48.856;9.088;2023-02-10T15:05:47;99948.91;;;9.45;35.71
42601;BME280;28229;48.856;9.088;2023-02-10T15:08:21;99951.47;;;9.21;39.74
42601;BME280;28229;48.856;9.088;2023-02-10T15:10:50;99950.69;;;8.94;36.82
42601;BME280;28229;48.856;9.088;2023-02-10T15:13:26;99951.41;;;8.78;37.45
42601;BME280;28229;48.856;9.088;2023-02-10T15:15:57;99956.00;;;8.50;39.54
42601;BME280;28229;48.856;9.088;2023-02-10T15:18:26;99954.91;;;8.34;38.04
42601;BME280;28229;48.856;9.088;2023-02-10T15:20:57;99944.59;;;8.15;38.37
42601;BME280;28229;48.856;9.088;2023-02-10T15:23:24;99943.03;;;8.04;38.72
42601;BME280;28229;48.856;9.088;2023-02-10T15:26:20;99941.47;;;7.93;39.21
42601;BME280;28229;48.856;9.088;2023-02-10T15:29:04;99943.78;;;7.78;39.87
42601;BME280;28229;48.856;9.088;2023-02-10T15:31:31;99938.91;;;7.66;39.77
42601;BME280;28229;48.856;9.088;2023-02-10T15:33:59;99947.00;;;7.54;40.23
42601;BME280;28229;48.856;9.088;2023-02-10T15:36:34;99942.53;;;7.37;40.57
42601;BME280;28229;48.856;9.088;2023-02-10T15:39:02;99941.47;;;7.30;40.45
42601;BME280;28229;48.856;9.088;2023-02-10T15:49:13;99933.03;;;6.80;42.04
42601;BME280;28229;48.856;9.088;2023-02-10T15:51:52;99929.47;;;6.72;41.96
42601;BME280;28229;48.856;9.088;2023-02-10T15:54:21;99926.22;;;6.60;42.28
42601;BME280;28229;48.856;9.088;2023-02-10T15:57:02;99933.66;;;6.55;42.81
42601;BME280;28229;48.856;9.088;2023-02-10T15:59:29;99926.53;;;6.37;43.12
42601;BME280;28229;48.856;9.088;2023-02-10T16:01:56;99932.63;;;6.28;43.61
42601;BME280;28229;48.856;9.088;2023-02-10T16:04:23;99931.25;;;6.14;45.07
42601;BME280;28229;48.856;9.088;2023-02-10T16:06:50;99929.63;;;6.03;45.42
42601;BME280;28229;48.856;9.088;2023-02-10T16:09:16;99930.56;;;5.93;45.90
42601;BME280;28229;48.856;9.088;2023-02-10T16:11:43;99931.81;;;5.88;45.18
42601;BME280;28229;48.856;9.088;2023-02-10T16:14:10;99939.63;;;5.79;45.60
42601;BME280;28229;48.856;9.088;2023-02-10T16:16:40;99943.06;;;5.69;45.76
42601;BME280;28229;48.856;9.088;2023-02-10T16:19:11;99943.88;;;5.60;45.66
42601;BME280;28229;48.856;9.088;2023-02-10T16:21:38;99944.81;;;5.49;46.01
42601;BME280;28229;48.856;9.088;2023-02-10T16:24:05;99947.69;;;5.37;46.31
42601;BME280;28229;48.856;9.088;2023-02-10T16:26:31;99943.97;;;5.29;46.60
42601;BME280;28229;48.856;9.088;2023-02-10T16:28:57;99949.00;;;5.21;46.76
42601;BME280;28229;48.856;9.088;2023-02-10T16:31:23;99943.50;;;5.14;46.68
42601;BME280;28229;48.856;9.088;2023-02-10T16:33:49;99947.72;;;5.06;47.34
42601;BME280;28229;48.856;9.088;2023-02-10T16:36:16;99942.88;;;4.91;47.95
42601;BME280;28229;48.856;9.088;2023-02-10T16:38:44;99947.94;;;4.83;47.83
42601;BME280;28229;48.856;9.088;2023-02-10T16:41:10;99941.78;;;4.63;48.08
42601;BME280;28229;48.856;9.088;2023-02-10T16:43:36;99944.34;;;4.53;48.54
42601;BME280;28229;48.856;9.088;2023-02-10T16:46:02;99944.84;;;4.47;48.75
42601;BME280;28229;48.856;9.088;2023-02-10T16:48:29;99952.25;;;4.42;48.76
42601;BME280;28229;48.856;9.088;2023-02-10T16:50:55;99943.13;;;4.36;48.68
42601;BME280;28229;48.856;9.088;2023-02-10T16:53:21;99951.47;;;4.30;49.16
42601;BME280;28229;48.856;9.088;2023-02-10T16:55:47;99953.75;;;4.24;49.32
42601;BME280;28229;48.856;9.088;2023-02-10T16:58:16;99957.69;;;4.18;49.50
42601;BME280;28229;48.856;9.088;2023-02-10T17:00:42;99955.91;;;4.18;49.69
42601;BME280;28229;48.856;9.088;2023-02-10T17:03:10;99956.41;;;4.12;49.87
42601;BME280;28229;48.856;9.088;2023-02-10T17:05:36;99961.16;;;4.07;50.17
42601;BME280;28229;48.856;9.088;2023-02-10T17:08:04;99969.75;;;3.98;50.43